sensor_id;sensor_type;location;lat;lon;timestamp;pressure;altitude;pressure_sealevel;temperature;humidity
60974;BME280;46846;51.528;5.076;2024-03-07T00:02:12;101991.59;;;5.13;91.98
60974;BME280;46846;51.528;5.076;2024-03-07T00:04:38;101988.97;;;5.13;91.80
60974;BME280;46846;51.528;5.076;2024-03-07T00:07:03;101998.63;;;5.11;91.94
60974;BME280;46846;51.528;5.076;2024-03-07T00:09:32;101995.97;;;5.09;91.55
60974;BME280;46846;51.528;5.076;2024-03-07T00:11:57;101990.69;;;5.07;91.49
60974;BME280;46846;51.528;5.076;2024-03-07T00:14:22;101992.44;;;5.05;92.17
60974;BME280;46846;51.528;5.076;2024-03-07T00:16:52;101996.81;;;5.05;91.63
60974;BME280;46846;51.528;5.076;2024-03-07T00:19:17;101995.94;;;5.03;92.03
60974;BME280;46846;51.528;5.076;2024-03-07T00:21:43;101991.50;;;5.00;91.56
60974;BME280;46846;51.528;5.076;2024-03-07T00:24:08;101989.75;;;4.99;92.14
60974;BME280;46846;51.528;5.076;2024-03-07T00:26:33;101995.00;;;4.98;91.87
60974;BME280;46846;51.528;5.076;2024-03-07T00:28:58;102000.28;;;4.96;91.71
60974;BME280;46846;51.528;5.076;2024-03-07T00:31:24;102001.16;;;4.95;91.81
60974;BME280;46846;51.528;5.076;2024-03-07T00:33:49;101997.63;;;4.95;92.39
60974;BME280;46846;51.528;5.076;2024-03-07T00:36:14;101985.28;;;4.92;91.65
60974;BME280;46846;51.528;5.076;2024-03-07T00:38:40;101986.16;;;4.91;91.64
60974;BME280;46846;51.528;5.076;2024-03-07T00:41:07;101976.50;;;4.90;91.85
60974;BME280;46846;51.528;5.076;2024-03-07T00:43:32;101982.66;;;4.90;92.08
60974;BME280;46846;51.528;5.076;2024-03-07T00:45:57;101980.88;;;4.88;92.08
60974;BME280;46846;51.528;5.076;2024-03-07T00:48:22;101973.84;;;4.87;91.92
60974;BME280;46846;51.528;5.076;2024-03-07T00:50:50;101971.22;;;4.87;91.63
60974;BME280;46846;51.528;5.076;2024-03-07T00:53:15;101975.59;;;4.86;91.76
60974;BME280;46846;51.528;5.076;2024-03-07T00:55:40;101978.19;;;4.85;91.31
60974;BME280;46846;51.528;5.076;2024-03-07T00:58:06;101972.94;;;4.83;91.40
60974;BME280;46846;51.528;5.076;2024-03-07T01:00:31;101972.03;;;4.83;91.55
60974;BME280;46846;51.528;5.076;2024-03-07T01:02:56;101971.16;;;4.81;91.63
60974;BME280;46846;51.528;5.076;2024-03-07T01:05:22;101972.03;;;4.79;91.63
60974;BME280;46846;51.528;5.076;2024-03-07T01:07:47;101963.25;;;4.81;91.56
60974;BME280;46846;51.528;5.076;2024-03-07T01:10:13;101968.47;;;4.77;91.32
60974;BME280;46846;51.528;5.076;2024-03-07T01:12:39;101972.03;;;4.79;91.40
60974;BME280;46846;51.528;5.076;2024-03-07T01:15:04;101972.88;;;4.77;91.45
60974;BME280;46846;51.528;5.076;2024-03-07T01:17:30;101973.75;;;4.76;91.51
60974;BME280;46846;51.528;5.076;2024-03-07T01:19:55;101971.09;;;4.74;91.70
60974;BME280;46846;51.528;5.076;2024-03-07T01:22:21;101970.19;;;4.74;91.46
60974;BME280;46846;51.528;5.076;2024-03-07T01:24:47;101963.16;;;4.71;91.31
60974;BME280;46846;51.528;5.076;2024-03-07T01:27:12;101961.38;;;4.70;91.14
60974;BME280;46846;51.528;5.076;2024-03-07T01:29:38;101963.16;;;4.70;91.16
60974;BME280;46846;51.528;5.076;2024-03-07T01:32:06;101964.00;;;4.67;91.34
60974;BME280;46846;51.528;5.076;2024-03-07T01:34:31;101960.47;;;4.67;91.60
60974;BME280;46846;51.528;5.076;2024-03-07T01:36:56;101955.22;;;4.65;91.35
60974;BME280;46846;51.528;5.076;2024-03-07T01:39:22;101952.56;;;4.65;91.30
60974;BME280;46846;51.528;5.076;2024-03-07T01:41:48;101953.44;;;4.62;91.46
60974;BME280;46846;51.528;5.076;2024-03-07T01:44:13;101955.16;;;4.62;91.25
60974;BME280;46846;51.528;5.076;2024-03-07T01:46:39;101946.38;;;4.60;91.27
60974;BME280;46846;51.528;5.076;2024-03-07T01:49:04;101947.25;;;4.59;91.35
60974;BME280;46846;51.528;5.076;2024-03-07T01:51:32;101944.63;;;4.59;91.21
60974;BME280;46846;51.528;5.076;2024-03-07T01:53:58;101943.72;;;4.58;91.12
60974;BME280;46846;51.528;5.076;2024-03-07T01:56:24;101937.53;;;4.55;91.20
60974;BME280;46846;51.528;5.076;2024-03-07T01:58:49;101937.53;;;4.53;91.97
60974;BME280;46846;51.528;5.076;2024-03-07T02:01:14;101938.41;;;4.54;91.41
60974;BME280;46846;51.528;5.076;2024-03-07T02:03:40;101940.19;;;4.53;91.53
60974;BME280;46846;51.528;5.076;2024-03-07T02:06:06;101935.75;;;4.50;91.66
60974;BME280;46846;51.528;5.076;2024-03-07T02:08:31;101935.75;;;4.50;91.50
60974;BME280;46846;51.528;5.076;2024-03-07T02:10:57;101934.00;;;4.49;91.30
60974;BME280;46846;51.528;5.076;2024-03-07T02:13:22;101928.69;;;4.48;91.13
60974;BME280;46846;51.528;5.076;2024-03-07T02:15:48;101926.06;;;4.48;91.38
60974;BME280;46846;51.528;5.076;2024-03-07T02:18:13;101926.94;;;4.48;91.82
60974;BME280;46846;51.528;5.076;2024-03-07T02:20:42;101922.53;;;4.47;91.46
60974;BME280;46846;51.528;5.076;2024-03-07T02:23:07;101925.19;;;4.46;91.44
60974;BME280;46846;51.528;5.076;2024-03-07T02:25:33;101921.66;;;4.45;90.88
60974;BME280;46846;51.528;5.076;2024-03-07T02:28:02;101920.75;;;4.43;91.08
60974;BME280;46846;51.528;5.076;2024-03-07T02:30:29;101919.88;;;4.43;91.39
60974;BME280;46846;51.528;5.076;2024-03-07T02:32:57;101919.84;;;4.41;90.86
60974;BME280;46846;51.528;5.076;2024-03-07T02:35:22;101912.81;;;4.40;91.43
60974;BME280;46846;51.528;5.076;2024-03-07T02:37:48;101911.94;;;4.40;91.44
60974;BME280;46846;51.528;5.076;2024-03-07T02:40:13;101923.34;;;4.40;91.18
60974;BME280;46846;51.528;5.076;2024-03-07T02:42:39;101909.31;;;4.40;91.19
60974;BME280;46846;51.528;5.076;2024-03-07T02:45:04;101912.78;;;4.37;90.78
60974;BME280;46846;51.528;5.076;2024-03-07T02:47:30;101903.06;;;4.30;91.20
60974;BME280;46846;51.528;5.076;2024-03-07T02:49:55;101903.09;;;4.33;91.40
60974;BME280;46846;51.528;5.076;2024-03-07T02:52:20;101904.84;;;4.31;91.16
60974;BME280;46846;51.528;5.076;2024-03-07T02:54:46;101902.22;;;4.32;91.23
60974;BME280;46846;51.528;5.076;2024-03-07T02:57:11;101908.34;;;4.33;91.05
60974;BME280;46846;51.528;5.076;2024-03-07T02:59:36;101901.31;;;4.32;90.89
60974;BME280;46846;51.528;5.076;2024-03-07T03:02:02;101892.50;;;4.28;90.87
60974;BME280;46846;51.528;5.076;2024-03-07T03:04:27;101892.50;;;4.28;90.93
60974;BME280;46846;51.528;5.076;2024-03-07T03:06:52;101894.28;;;4.28;91.01
60974;BME280;46846;51.528;5.076;2024-03-07T03:09:17;101890.72;;;4.26;91.29
60974;BME280;46846;51.528;5.076;2024-03-07T03:11:43;101891.59;;;4.24;91.56
60974;BME280;46846;51.528;5.076;2024-03-07T03:14:09;101888.09;;;4.24;90.67
60974;BME280;46846;51.528;5.076;2024-03-07T03:16:36;101886.34;;;4.23;91.44
60974;BME280;46846;51.528;5.076;2024-03-07T03:19:01;101892.47;;;4.20;91.44
60974;BME280;46846;51.528;5.076;2024-03-07T03:21:26;101892.47;;;4.20;91.13
60974;BME280;46846;51.528;5.076;2024-03-07T03:23:52;101888.06;;;4.21;91.37
60974;BME280;46846;51.528;5.076;2024-03-07T03:26:19;101891.59;;;4.21;91.47
60974;BME280;46846;51.528;5.076;2024-03-07T03:28:45;101888.03;;;4.18;91.12
60974;BME280;46846;51.528;5.076;2024-03-07T03:31:10;101881.88;;;4.17;90.88
60974;BME280;46846;51.528;5.076;2024-03-07T03:33:38;101882.75;;;4.16;91.25
60974;BME280;46846;51.528;5.076;2024-03-07T03:36:04;101880.03;;;4.10;91.28
60974;BME280;46846;51.528;5.076;2024-03-07T03:38:29;101873.91;;;4.11;91.53
60974;BME280;46846;51.528;5.076;2024-03-07T03:40:54;101873.91;;;4.11;91.24
60974;BME280;46846;51.528;5.076;2024-03-07T03:43:21;101873.06;;;4.12;91.66
60974;BME280;46846;51.528;5.076;2024-03-07T03:45:46;101873.03;;;4.10;91.04
60974;BME280;46846;51.528;5.076;2024-03-07T03:48:12;101870.41;;;4.10;91.36
60974;BME280;46846;51.528;5.076;2024-03-07T03:50:38;101877.41;;;4.10;91.34
60974;BME280;46846;51.528;5.076;2024-03-07T03:53:03;101880.91;;;4.09;91.23
60974;BME280;46846;51.528;5.076;2024-03-07T03:55:29;101877.41;;;4.07;91.06
60974;BME280;46846;51.528;5.076;2024-03-07T03:57:54;101876.56;;;4.09;90.76
60974;BME280;46846;51.528;5.076;2024-03-07T04:00:20;101872.09;;;4.05;90.51
60974;BME280;46846;51.528;5.076;2024-03-07T04:02:47;101872.09;;;4.05;91.53
60974;BME280;46846;51.528;5.076;2024-03-07T04:05:13;101875.63;;;4.04;91.31
60974;BME280;46846;51.528;5.076;2024-03-07T04:07:39;101875.59;;;4.03;91.02
60974;BME280;46846;51.528;5.076;2024-03-07T04:10:05;101870.31;;;4.00;91.23
60974;BME280;46846;51.528;5.076;2024-03-07T04:12:34;101869.41;;;3.97;91.57
60974;BME280;46846;51.528;5.076;2024-03-07T04:14:59;101867.63;;;3.96;91.27
60974;BME280;46846;51.528;5.076;2024-03-07T04:17:25;101866.72;;;3.94;91.27
60974;BME280;46846;51.528;5.076;2024-03-07T04:19:50;101860.59;;;3.94;91.07
60974;BME280;46846;51.528;5.076;2024-03-07T04:22:16;101861.47;;;3.94;91.15
60974;BME280;46846;51.528;5.076;2024-03-07T04:24:44;101863.19;;;3.91;90.76
60974;BME280;46846;51.528;5.076;2024-03-07T04:27:09;101864.09;;;3.91;91.12
60974;BME280;46846;51.528;5.076;2024-03-07T04:29:34;101862.31;;;3.90;90.92
60974;BME280;46846;51.528;5.076;2024-03-07T04:32:00;101857.94;;;3.89;91.21
60974;BME280;46846;51.528;5.076;2024-03-07T04:34:26;101861.41;;;3.87;91.00
60974;BME280;46846;51.528;5.076;2024-03-07T04:36:53;101857.88;;;3.86;91.08
60974;BME280;46846;51.528;5.076;2024-03-07T04:39:18;101861.38;;;3.83;91.33
60974;BME280;46846;51.528;5.076;2024-03-07T04:41:53;101857.00;;;3.84;91.48
60974;BME280;46846;51.528;5.076;2024-03-07T04:44:19;101861.38;;;3.83;91.07
60974;BME280;46846;51.528;5.076;2024-03-07T04:46:47;101865.75;;;3.83;91.12
60974;BME280;46846;51.528;5.076;2024-03-07T04:49:14;101869.28;;;3.82;90.99
60974;BME280;46846;51.528;5.076;2024-03-07T04:51:39;101856.09;;;3.82;91.63
60974;BME280;46846;51.528;5.076;2024-03-07T04:54:04;101857.81;;;3.80;90.83
60974;BME280;46846;51.528;5.076;2024-03-07T04:56:29;101860.44;;;3.80;90.79
60974;BME280;46846;51.528;5.076;2024-03-07T04:58:55;101862.19;;;3.78;91.49
60974;BME280;46846;51.528;5.076;2024-03-07T05:01:20;101870.06;;;3.76;90.96
60974;BME280;46846;51.528;5.076;2024-03-07T05:03:46;101856.03;;;3.76;91.17
60974;BME280;46846;51.528;5.076;2024-03-07T05:06:11;101862.16;;;3.73;91.27
60974;BME280;46846;51.528;5.076;2024-03-07T05:08:36;101849.84;;;3.74;91.27
60974;BME280;46846;51.528;5.076;2024-03-07T05:11:01;101856.00;;;3.71;91.23
60974;BME280;46846;51.528;5.076;2024-03-07T05:13:27;101855.94;;;3.68;91.24
60974;BME280;46846;51.528;5.076;2024-03-07T05:15:52;101853.34;;;3.69;91.13
60974;BME280;46846;51.528;5.076;2024-03-07T05:18:18;101855.94;;;3.68;90.86
60974;BME280;46846;51.528;5.076;2024-03-07T05:20:43;101862.91;;;3.64;91.45
60974;BME280;46846;51.528;5.076;2024-03-07T05:23:08;101862.94;;;3.66;90.98
60974;BME280;46846;51.528;5.076;2024-03-07T05:25:35;101861.19;;;3.65;91.23
60974;BME280;46846;51.528;5.076;2024-03-07T05:28:01;101864.69;;;3.65;91.33
60974;BME280;46846;51.528;5.076;2024-03-07T05:30:27;101863.81;;;3.65;90.67
60974;BME280;46846;51.528;5.076;2024-03-07T05:32:53;101861.13;;;3.62;90.83
60974;BME280;46846;51.528;5.076;2024-03-07T05:35:19;101859.34;;;3.59;90.68
60974;BME280;46846;51.528;5.076;2024-03-07T05:37:45;101856.72;;;3.59;91.23
60974;BME280;46846;51.528;5.076;2024-03-07T05:40:12;101855.84;;;3.59;90.69
60974;BME280;46846;51.528;5.076;2024-03-07T05:42:37;101853.19;;;3.57;91.15
60974;BME280;46846;51.528;5.076;2024-03-07T05:45:03;101861.94;;;3.54;91.40
60974;BME280;46846;51.528;5.076;2024-03-07T05:47:32;101862.78;;;3.53;91.66
60974;BME280;46846;51.528;5.076;2024-03-07T05:49:57;101863.66;;;3.49;91.49
60974;BME280;46846;51.528;5.076;2024-03-07T05:52:23;101863.63;;;3.51;91.83
60974;BME280;46846;51.528;5.076;2024-03-07T05:54:48;101862.78;;;3.50;91.49
60974;BME280;46846;51.528;5.076;2024-03-07T05:57:13;101861.88;;;3.50;91.09
60974;BME280;46846;51.528;5.076;2024-03-07T05:59:39;101862.75;;;3.49;91.19
60974;BME280;46846;51.528;5.076;2024-03-07T06:02:04;101860.13;;;3.49;91.35
60974;BME280;46846;51.528;5.076;2024-03-07T06:04:30;101858.34;;;3.48;91.05
60974;BME280;46846;51.528;5.076;2024-03-07T06:06:57;101857.50;;;3.49;91.62
60974;BME280;46846;51.528;5.076;2024-03-07T06:09:22;101855.75;;;3.49;90.74
60974;BME280;46846;51.528;5.076;2024-03-07T06:11:47;101853.97;;;3.50;90.43
60974;BME280;46846;51.528;5.076;2024-03-07T06:14:13;101854.84;;;3.49;91.24
60974;BME280;46846;51.528;5.076;2024-03-07T06:16:39;101858.34;;;3.48;90.67
60974;BME280;46846;51.528;5.076;2024-03-07T06:19:05;101858.34;;;3.48;90.93
60974;BME280;46846;51.528;5.076;2024-03-07T06:21:33;101855.69;;;3.46;90.74
60974;BME280;46846;51.528;5.076;2024-03-07T06:23:59;101859.19;;;3.45;91.06
60974;BME280;46846;51.528;5.076;2024-03-07T06:26:25;101853.97;;;3.47;91.00
60974;BME280;46846;51.528;5.076;2024-03-07T06:29:02;101850.47;;;3.48;90.55
60974;BME280;46846;51.528;5.076;2024-03-07T06:31:29;101849.63;;;3.50;90.04
60974;BME280;46846;51.528;5.076;2024-03-07T06:33:54;101853.97;;;3.47;90.73
60974;BME280;46846;51.528;5.076;2024-03-07T06:36:19;101846.09;;;3.50;90.45
60974;BME280;46846;51.528;5.076;2024-03-07T06:38:44;101850.47;;;3.48;90.30
60974;BME280;46846;51.528;5.076;2024-03-07T06:41:10;101847.81;;;3.46;90.22
60974;BME280;46846;51.528;5.076;2024-03-07T06:43:35;101852.19;;;3.46;90.37
60974;BME280;46846;51.528;5.076;2024-03-07T06:46:00;101847.81;;;3.45;90.46
60974;BME280;46846;51.528;5.076;2024-03-07T06:48:26;101846.03;;;3.45;90.07
60974;BME280;46846;51.528;5.076;2024-03-07T06:50:51;101852.16;;;3.41;89.89
60974;BME280;46846;51.528;5.076;2024-03-07T06:53:17;101853.00;;;3.38;89.95
60974;BME280;46846;51.528;5.076;2024-03-07T06:55:43;101845.09;;;3.40;90.38
60974;BME280;46846;51.528;5.076;2024-03-07T06:58:08;101843.34;;;3.39;90.11
60974;BME280;46846;51.528;5.076;2024-03-07T07:00:33;101846.00;;;3.40;89.88
60974;BME280;46846;51.528;5.076;2024-03-07T07:03:01;101844.19;;;3.38;89.74
60974;BME280;46846;51.528;5.076;2024-03-07T07:05:28;101839.75;;;3.32;89.96
60974;BME280;46846;51.528;5.076;2024-03-07T07:07:55;101846.78;;;3.33;89.95
60974;BME280;46846;51.528;5.076;2024-03-07T07:10:20;101853.00;;;3.40;88.92
60974;BME280;46846;51.528;5.076;2024-03-07T07:12:49;101852.94;;;3.35;89.61
60974;BME280;46846;51.528;5.076;2024-03-07T07:15:15;101852.03;;;3.33;89.62
60974;BME280;46846;51.528;5.076;2024-03-07T07:17:41;101850.25;;;3.31;89.96
60974;BME280;46846;51.528;5.076;2024-03-07T07:20:07;101853.81;;;3.34;88.32
60974;BME280;46846;51.528;5.076;2024-03-07T07:22:35;101845.91;;;3.31;89.30
60974;BME280;46846;51.528;5.076;2024-03-07T07:25:00;101844.13;;;3.30;88.97
60974;BME280;46846;51.528;5.076;2024-03-07T07:27:26;101848.47;;;3.28;89.77
60974;BME280;46846;51.528;5.076;2024-03-07T07:29:51;101850.25;;;3.31;89.52
60974;BME280;46846;51.528;5.076;2024-03-07T07:32:16;101852.00;;;3.32;88.92
60974;BME280;46846;51.528;5.076;2024-03-07T07:34:42;101850.22;;;3.27;90.09
60974;BME280;46846;51.528;5.076;2024-03-07T07:37:08;101846.78;;;3.33;86.48
60974;BME280;46846;51.528;5.076;2024-03-07T07:39:36;101847.59;;;3.29;89.18
60974;BME280;46846;51.528;5.076;2024-03-07T07:42:01;101846.72;;;3.28;89.44
60974;BME280;46846;51.528;5.076;2024-03-07T07:44:26;101844.13;;;3.30;88.09
60974;BME280;46846;51.528;5.076;2024-03-07T07:46:51;101845.03;;;3.32;87.93
60974;BME280;46846;51.528;5.076;2024-03-07T07:49:17;101842.38;;;3.31;88.83
60974;BME280;46846;51.528;5.076;2024-03-07T07:51:42;101843.25;;;3.33;86.95
60974;BME280;46846;51.528;5.076;2024-03-07T07:54:07;101843.25;;;3.33;86.90
60974;BME280;46846;51.528;5.076;2024-03-07T07:56:34;101844.16;;;3.33;87.61
60974;BME280;46846;51.528;5.076;2024-03-07T07:59:00;101846.75;;;3.30;87.21
60974;BME280;46846;51.528;5.076;2024-03-07T08:01:25;101843.25;;;3.33;85.34
60974;BME280;46846;51.528;5.076;2024-03-07T08:03:51;101836.25;;;3.30;86.75
60974;BME280;46846;51.528;5.076;2024-03-07T08:06:16;101832.69;;;3.28;87.43
60974;BME280;46846;51.528;5.076;2024-03-07T08:08:42;101835.31;;;3.28;86.92
60974;BME280;46846;51.528;5.076;2024-03-07T08:11:07;101836.25;;;3.30;85.82
60974;BME280;46846;51.528;5.076;2024-03-07T08:13:34;101823.88;;;3.23;88.73
60974;BME280;46846;51.528;5.076;2024-03-07T08:16:00;101830.06;;;3.26;86.87
60974;BME280;46846;51.528;5.076;2024-03-07T08:18:25;101833.53;;;3.25;86.66
60974;BME280;46846;51.528;5.076;2024-03-07T08:20:52;101826.53;;;3.26;85.83
60974;BME280;46846;51.528;5.076;2024-03-07T08:23:17;101826.53;;;3.26;87.10
60974;BME280;46846;51.528;5.076;2024-03-07T08:25:42;101823.88;;;3.23;87.68
60974;BME280;46846;51.528;5.076;2024-03-07T08:28:08;101829.13;;;3.23;86.99
60974;BME280;46846;51.528;5.076;2024-03-07T08:30:33;101822.94;;;3.21;88.30
60974;BME280;46846;51.528;5.076;2024-03-07T08:33:00;101834.41;;;3.23;87.31
60974;BME280;46846;51.528;5.076;2024-03-07T08:35:27;101816.00;;;3.23;86.54
60974;BME280;46846;51.528;5.076;2024-03-07T08:37:54;101825.66;;;3.27;85.22
60974;BME280;46846;51.528;5.076;2024-03-07T08:40:21;101819.53;;;3.28;85.30
60974;BME280;46846;51.528;5.076;2024-03-07T08:42:47;101814.22;;;3.23;87.92
60974;BME280;46846;51.528;5.076;2024-03-07T08:45:13;101812.50;;;3.24;86.68
60974;BME280;46846;51.528;5.076;2024-03-07T08:47:42;101816.91;;;3.26;85.48
60974;BME280;46846;51.528;5.076;2024-03-07T08:50:08;101815.97;;;3.24;86.43
60974;BME280;46846;51.528;5.076;2024-03-07T08:52:36;101811.66;;;3.26;85.30
60974;BME280;46846;51.528;5.076;2024-03-07T08:55:02;101811.63;;;3.25;86.67
60974;BME280;46846;51.528;5.076;2024-03-07T08:57:27;101812.50;;;3.27;85.17
60974;BME280;46846;51.528;5.076;2024-03-07T08:59:52;101809.00;;;3.26;83.90
60974;BME280;46846;51.528;5.076;2024-03-07T09:02:18;101808.13;;;3.26;84.32
60974;BME280;46846;51.528;5.076;2024-03-07T09:04:43;101812.50;;;3.24;86.31
60974;BME280;46846;51.528;5.076;2024-03-07T09:07:08;101808.97;;;3.25;85.48
60974;BME280;46846;51.528;5.076;2024-03-07T09:09:34;101798.50;;;3.26;85.36
60974;BME280;46846;51.528;5.076;2024-03-07T09:12:00;101805.50;;;3.27;85.07
60974;BME280;46846;51.528;5.076;2024-03-07T09:14:26;101806.38;;;3.26;86.21
60974;BME280;46846;51.528;5.076;2024-03-07T09:16:51;101802.84;;;3.23;86.82
60974;BME280;46846;51.528;5.076;2024-03-07T09:19:17;101808.97;;;3.25;86.97
60974;BME280;46846;51.528;5.076;2024-03-07T09:21:47;101798.47;;;3.25;86.20
60974;BME280;46846;51.528;5.076;2024-03-07T09:24:14;101798.50;;;3.28;85.35
60974;BME280;46846;51.528;5.076;2024-03-07T09:26:40;101801.97;;;3.25;87.45
60974;BME280;46846;51.528;5.076;2024-03-07T09:29:05;101798.50;;;3.26;85.74
60974;BME280;46846;51.528;5.076;2024-03-07T09:31:34;101796.66;;;3.21;88.23
60974;BME280;46846;51.528;5.076;2024-03-07T09:33:59;101794.97;;;3.26;85.62
60974;BME280;46846;51.528;5.076;2024-03-07T09:36:25;101798.50;;;3.26;86.08
60974;BME280;46846;51.528;5.076;2024-03-07T09:38:50;101791.50;;;3.28;85.05
60974;BME280;46846;51.528;5.076;2024-03-07T09:41:15;101786.31;;;3.35;83.65
60974;BME280;46846;51.528;5.076;2024-03-07T09:43:42;101781.03;;;3.35;84.15
60974;BME280;46846;51.528;5.076;2024-03-07T09:46:09;101782.78;;;3.34;85.92
60974;BME280;46846;51.528;5.076;2024-03-07T09:48:35;101790.66;;;3.31;84.40
60974;BME280;46846;51.528;5.076;2024-03-07T09:51:00;101778.38;;;3.33;83.91
60974;BME280;46846;51.528;5.076;2024-03-07T09:53:27;101786.28;;;3.36;84.23
60974;BME280;46846;51.528;5.076;2024-03-07T09:55:53;101776.66;;;3.35;82.80
60974;BME280;46846;51.528;5.076;2024-03-07T09:58:19;101789.84;;;3.38;85.25
60974;BME280;46846;51.528;5.076;2024-03-07T10:00:45;101791.41;;;3.22;87.70
60974;BME280;46846;51.528;5.076;2024-03-07T10:03:12;101796.69;;;3.22;83.82
60974;BME280;46846;51.528;5.076;2024-03-07T10:05:38;101784.47;;;3.29;82.91
60974;BME280;46846;51.528;5.076;2024-03-07T10:08:04;101779.25;;;3.32;83.73
60974;BME280;46846;51.528;5.076;2024-03-07T10:10:29;101772.16;;;3.25;86.40
60974;BME280;46846;51.528;5.076;2024-03-07T10:12:55;101773.13;;;3.36;81.75
60974;BME280;46846;51.528;5.076;2024-03-07T10:15:29;101772.34;;;3.44;82.75
60974;BME280;46846;51.528;5.076;2024-03-07T10:17:55;101758.31;;;3.43;81.58
60974;BME280;46846;51.528;5.076;2024-03-07T10:20:20;101762.75;;;3.49;81.94
60974;BME280;46846;51.528;5.076;2024-03-07T10:22:47;101773.25;;;3.47;84.79
60974;BME280;46846;51.528;5.076;2024-03-07T10:25:14;101767.06;;;3.44;82.37
60974;BME280;46846;51.528;5.076;2024-03-07T10:27:42;101766.31;;;3.52;81.97
60974;BME280;46846;51.528;5.076;2024-03-07T10:30:09;101766.34;;;3.57;81.58
60974;BME280;46846;51.528;5.076;2024-03-07T10:32:34;101761.94;;;3.56;81.97
60974;BME280;46846;51.528;5.076;2024-03-07T10:35:01;101758.28;;;3.41;85.88
60974;BME280;46846;51.528;5.076;2024-03-07T10:37:28;101753.00;;;3.37;87.55
60974;BME280;46846;51.528;5.076;2024-03-07T10:39:54;101750.38;;;3.38;85.98
60974;BME280;46846;51.528;5.076;2024-03-07T10:42:20;101753.06;;;3.46;83.82
60974;BME280;46846;51.528;5.076;2024-03-07T10:44:49;101748.72;;;3.48;85.17
60974;BME280;46846;51.528;5.076;2024-03-07T10:47:17;101742.66;;;3.57;80.98
60974;BME280;46846;51.528;5.076;2024-03-07T10:52:14;101749.59;;;3.46;85.92
60974;BME280;46846;51.528;5.076;2024-03-07T10:54:48;101751.41;;;3.56;82.38
60974;BME280;46846;51.528;5.076;2024-03-07T10:57:33;101746.09;;;3.50;86.50
60974;BME280;46846;51.528;5.076;2024-03-07T11:00:03;101747.00;;;3.50;88.19
60974;BME280;46846;51.528;5.076;2024-03-07T11:02:52;101735.59;;;3.51;88.09
60974;BME280;46846;51.528;5.076;2024-03-07T11:05:20;101740.84;;;3.50;87.77
60974;BME280;46846;51.528;5.076;2024-03-07T11:07:49;101730.25;;;3.44;89.61
60974;BME280;46846;51.528;5.076;2024-03-07T11:10:15;101735.59;;;3.51;88.17
60974;BME280;46846;51.528;5.076;2024-03-07T11:12:42;101733.03;;;3.61;85.02
60974;BME280;46846;51.528;5.076;2024-03-07T11:15:09;101734.69;;;3.48;89.46
60974;BME280;46846;51.528;5.076;2024-03-07T11:17:43;101726.84;;;3.54;88.48
60974;BME280;46846;51.528;5.076;2024-03-07T11:20:21;101725.16;;;3.62;86.43
60974;BME280;46846;51.528;5.076;2024-03-07T11:22:47;101724.28;;;3.63;87.70
60974;BME280;46846;51.528;5.076;2024-03-07T11:25:14;101718.22;;;3.74;82.38
60974;BME280;46846;51.528;5.076;2024-03-07T11:27:39;101718.22;;;3.71;86.01
60974;BME280;46846;51.528;5.076;2024-03-07T11:30:05;101713.81;;;3.69;87.67
60974;BME280;46846;51.528;5.076;2024-03-07T11:32:35;101705.94;;;3.71;88.00
60974;BME280;46846;51.528;5.076;2024-03-07T11:35:05;101703.34;;;3.77;85.30
60974;BME280;46846;51.528;5.076;2024-03-07T11:37:39;101697.25;;;3.81;84.49
60974;BME280;46846;51.528;5.076;2024-03-07T11:40:58;101706.09;;;3.91;81.32
60974;BME280;46846;51.528;5.076;2024-03-07T11:42:57;101699.06;;;3.93;81.70
60974;BME280;46846;51.528;5.076;2024-03-07T11:45:25;101701.72;;;3.95;84.23
60974;BME280;46846;51.528;5.076;2024-03-07T11:47:53;101699.09;;;3.98;80.71
60974;BME280;46846;51.528;5.076;2024-03-07T11:50:28;101690.41;;;4.07;82.10
60974;BME280;46846;51.528;5.076;2024-03-07T11:52:54;101681.63;;;4.09;80.85
60974;BME280;46846;51.528;5.076;2024-03-07T11:55:20;101678.16;;;4.12;80.29
60974;BME280;46846;51.528;5.076;2024-03-07T11:57:47;101679.03;;;4.16;80.43
60974;BME280;46846;51.528;5.076;2024-03-07T12:00:12;101664.09;;;4.16;82.22
60974;BME280;46846;51.528;5.076;2024-03-07T12:02:39;101657.97;;;4.17;80.41
60974;BME280;46846;51.528;5.076;2024-03-07T12:05:07;101657.97;;;4.19;77.79
60974;BME280;46846;51.528;5.076;2024-03-07T12:07:33;101672.06;;;4.27;75.67
60974;BME280;46846;51.528;5.076;2024-03-07T12:09:59;101654.53;;;4.31;79.13
60974;BME280;46846;51.528;5.076;2024-03-07T12:12:25;101646.63;;;4.34;78.16
60974;BME280;46846;51.528;5.076;2024-03-07T12:14:53;101653.59;;;4.26;82.39
60974;BME280;46846;51.528;5.076;2024-03-07T12:17:19;101644.72;;;4.06;86.52
60974;BME280;46846;51.528;5.076;2024-03-07T12:19:44;101643.91;;;4.17;82.64
60974;BME280;46846;51.528;5.076;2024-03-07T12:22:11;101642.13;;;4.11;86.39
60974;BME280;46846;51.528;5.076;2024-03-07T12:24:40;101636.84;;;4.08;84.18
60974;BME280;46846;51.528;5.076;2024-03-07T12:27:08;101636.88;;;4.14;86.35
60974;BME280;46846;51.528;5.076;2024-03-07T12:29:35;101627.22;;;4.16;84.77
60974;BME280;46846;51.528;5.076;2024-03-07T12:32:01;101615.81;;;4.17;85.35
60974;BME280;46846;51.528;5.076;2024-03-07T12:34:26;101620.19;;;4.18;86.13
60974;BME280;46846;51.528;5.076;2024-03-07T12:36:52;101611.44;;;4.26;80.86
60974;BME280;46846;51.528;5.076;2024-03-07T12:39:24;101603.56;;;4.32;80.35
60974;BME280;46846;51.528;5.076;2024-03-07T12:41:50;101602.72;;;4.34;83.72
60974;BME280;46846;51.528;5.076;2024-03-07T12:44:20;101601.84;;;4.37;77.96
60974;BME280;46846;51.528;5.076;2024-03-07T12:46:47;101594.84;;;4.42;77.02
60974;BME280;46846;51.528;5.076;2024-03-07T12:49:13;101599.28;;;4.49;79.64
60974;BME280;46846;51.528;5.076;2024-03-07T12:51:40;101597.50;;;4.55;73.58
60974;BME280;46846;51.528;5.076;2024-03-07T12:54:06;101597.47;;;4.48;76.97
60974;BME280;46846;51.528;5.076;2024-03-07T12:56:34;101597.47;;;4.48;82.33
60974;BME280;46846;51.528;5.076;2024-03-07T12:59:01;101584.31;;;4.45;83.60